sensor_id;sensor_type;location;lat;lon;timestamp;pressure;altitude;pressure_sealevel;temperature;humidity
34742;BME280;20968;42.696;23.360;2023-12-22T00:00:14;93758.56;;;3.62;73.52
34742;BME280;20968;42.696;23.360;2023-12-22T00:02:40;93760.09;;;3.63;73.77
34742;BME280;20968;42.696;23.360;2023-12-22T00:05:05;93758.28;;;3.60;73.50
34742;BME280;20968;42.696;23.360;2023-12-22T00:07:31;93742.69;;;3.31;74.40
34742;BME280;20968;42.696;23.360;2023-12-22T00:09:56;93735.03;;;3.44;73.99
34742;BME280;20968;42.696;23.360;2023-12-22T00:12:22;93740.81;;;3.52;73.73
34742;BME280;20968;42.696;23.360;2023-12-22T00:14:47;93748.16;;;3.46;74.07
34742;BME280;20968;42.696;23.360;2023-12-22T00:17:13;93742.03;;;3.36;74.51
34742;BME280;20968;42.696;23.360;2023-12-22T00:19:38;93727.72;;;3.50;73.74
34742;BME280;20968;42.696;23.360;2023-12-22T00:22:04;93730.53;;;3.56;74.56
34742;BME280;20968;42.696;23.360;2023-12-22T00:24:29;93723.56;;;3.40;74.37
34742;BME280;20968;42.696;23.360;2023-12-22T00:26:55;93720.38;;;3.42;74.59
34742;BME280;20968;42.696;23.360;2023-12-22T00:29:20;93717.56;;;3.51;74.75
34742;BME280;20968;42.696;23.360;2023-12-22T00:31:45;93717.00;;;3.47;74.74
34742;BME280;20968;42.696;23.360;2023-12-22T00:34:11;93718.22;;;3.46;75.31
34742;BME280;20968;42.696;23.360;2023-12-22T00:36:36;93702.19;;;3.48;75.10
34742;BME280;20968;42.696;23.360;2023-12-22T00:39:02;93701.25;;;3.51;74.96
34742;BME280;20968;42.696;23.360;2023-12-22T00:41:28;93708.47;;;3.54;74.39
34742;BME280;20968;42.696;23.360;2023-12-22T00:43:53;93694.59;;;3.52;74.51
34742;BME280;20968;42.696;23.360;2023-12-22T00:46:19;93690.28;;;3.60;75.05
34742;BME280;20968;42.696;23.360;2023-12-22T00:48:45;93686.72;;;3.54;74.62
34742;BME280;20968;42.696;23.360;2023-12-22T00:51:10;93697.50;;;3.63;75.17
34742;BME280;20968;42.696;23.360;2023-12-22T00:53:36;93692.91;;;3.69;74.25
34742;BME280;20968;42.696;23.360;2023-12-22T00:56:01;93689.78;;;3.61;74.77
34742;BME280;20968;42.696;23.360;2023-12-22T00:58:31;93696.75;;;3.62;73.77
34742;BME280;20968;42.696;23.360;2023-12-22T01:00:56;93677.03;;;3.38;74.97
34742;BME280;20968;42.696;23.360;2023-12-22T01:03:22;93674.13;;;3.42;74.91
34742;BME280;20968;42.696;23.360;2023-12-22T01:05:47;93682.84;;;3.31;75.75
34742;BME280;20968;42.696;23.360;2023-12-22T01:08:13;93684.09;;;3.45;75.48
34742;BME280;20968;42.696;23.360;2023-12-22T01:10:38;93679.47;;;3.51;75.58
34742;BME280;20968;42.696;23.360;2023-12-22T01:13:04;93683.53;;;3.41;75.88
34742;BME280;20968;42.696;23.360;2023-12-22T01:15:29;93687.44;;;3.54;75.50
34742;BME280;20968;42.696;23.360;2023-12-22T01:17:54;93674.97;;;3.62;74.84
34742;BME280;20968;42.696;23.360;2023-12-22T01:20:20;93686.53;;;3.72;74.66
34742;BME280;20968;42.696;23.360;2023-12-22T01:22:45;93680.69;;;3.79;74.60
34742;BME280;20968;42.696;23.360;2023-12-22T01:25:11;93674.97;;;3.77;74.33
34742;BME280;20968;42.696;23.360;2023-12-22T01:27:36;93679.47;;;3.80;74.50
34742;BME280;20968;42.696;23.360;2023-12-22T01:30:02;93671.56;;;3.82;74.52
34742;BME280;20968;42.696;23.360;2023-12-22T01:32:27;93664.72;;;3.86;74.92
34742;BME280;20968;42.696;23.360;2023-12-22T01:34:58;93663.31;;;3.90;74.74
34742;BME280;20968;42.696;23.360;2023-12-22T01:37:25;93658.44;;;3.94;74.44
34742;BME280;20968;42.696;23.360;2023-12-22T01:39:50;93655.31;;;4.01;74.77
34742;BME280;20968;42.696;23.360;2023-12-22T01:42:16;93650.69;;;4.07;74.08
34742;BME280;20968;42.696;23.360;2023-12-22T01:44:41;93653.53;;;3.98;74.20
34742;BME280;20968;42.696;23.360;2023-12-22T01:47:06;93653.81;;;4.00;74.10
34742;BME280;20968;42.696;23.360;2023-12-22T01:49:32;93629.72;;;3.93;74.67
34742;BME280;20968;42.696;23.360;2023-12-22T01:51:58;93631.00;;;3.98;74.42
34742;BME280;20968;42.696;23.360;2023-12-22T01:54:24;93638.91;;;3.96;74.51
34742;BME280;20968;42.696;23.360;2023-12-22T01:56:50;93636.25;;;4.01;74.78
34742;BME280;20968;42.696;23.360;2023-12-22T01:59:15;93634.25;;;3.82;74.78
34742;BME280;20968;42.696;23.360;2023-12-22T02:01:40;93642.91;;;3.66;74.85
34742;BME280;20968;42.696;23.360;2023-12-22T02:04:06;93626.22;;;3.44;75.90
34742;BME280;20968;42.696;23.360;2023-12-22T02:06:32;93641.97;;;3.55;75.07
34742;BME280;20968;42.696;23.360;2023-12-22T02:09:01;93647.22;;;3.44;75.35
34742;BME280;20968;42.696;23.360;2023-12-22T02:11:27;93635.41;;;3.47;75.18
34742;BME280;20968;42.696;23.360;2023-12-22T02:13:52;93637.28;;;3.41;75.82
34742;BME280;20968;42.696;23.360;2023-12-22T02:16:32;93627.47;;;3.14;77.14
34742;BME280;20968;42.696;23.360;2023-12-22T02:22:04;93632.22;;;2.91;77.39
34742;BME280;20968;42.696;23.360;2023-12-22T02:24:30;93631.34;;;2.70;78.12
34742;BME280;20968;42.696;23.360;2023-12-22T02:27:06;93627.56;;;2.53;78.59
34742;BME280;20968;42.696;23.360;2023-12-22T02:29:42;93619.63;;;2.64;79.12
34742;BME280;20968;42.696;23.360;2023-12-22T02:32:12;93618.19;;;2.54;79.24
34742;BME280;20968;42.696;23.360;2023-12-22T02:34:41;93616.13;;;2.64;78.87
34742;BME280;20968;42.696;23.360;2023-12-22T02:37:09;93621.13;;;2.80;78.62
34742;BME280;20968;42.696;23.360;2023-12-22T02:39:35;93624.63;;;2.80;78.08
34742;BME280;20968;42.696;23.360;2023-12-22T02:42:02;93628.50;;;2.65;79.11
34742;BME280;20968;42.696;23.360;2023-12-22T02:44:29;93615.50;;;2.69;78.84
34742;BME280;20968;42.696;23.360;2023-12-22T02:46:54;93609.13;;;2.72;79.04
34742;BME280;20968;42.696;23.360;2023-12-22T02:49:20;93608.69;;;2.88;79.06
34742;BME280;20968;42.696;23.360;2023-12-22T02:51:45;93591.56;;;2.96;78.27
34742;BME280;20968;42.696;23.360;2023-12-22T02:54:11;93585.56;;;3.07;77.83
34742;BME280;20968;42.696;23.360;2023-12-22T02:56:36;93600.53;;;3.16;77.75
34742;BME280;20968;42.696;23.360;2023-12-22T02:59:01;93587.91;;;3.13;77.37
34742;BME280;20968;42.696;23.360;2023-12-22T03:01:27;93596.53;;;2.98;77.40
34742;BME280;20968;42.696;23.360;2023-12-22T03:03:52;93597.06;;;3.02;77.88
34742;BME280;20968;42.696;23.360;2023-12-22T03:06:18;93591.72;;;2.93;78.25
34742;BME280;20968;42.696;23.360;2023-12-22T03:08:43;93588.91;;;3.02;78.55
34742;BME280;20968;42.696;23.360;2023-12-22T03:11:08;93589.59;;;3.11;78.25
34742;BME280;20968;42.696;23.360;2023-12-22T03:13:34;93582.91;;;3.12;78.69
34742;BME280;20968;42.696;23.360;2023-12-22T03:15:59;93592.47;;;3.07;77.43
34742;BME280;20968;42.696;23.360;2023-12-22T03:18:24;93597.63;;;3.20;77.97
34742;BME280;20968;42.696;23.360;2023-12-22T03:20:50;93587.44;;;2.86;78.66
34742;BME280;20968;42.696;23.360;2023-12-22T03:23:15;93594.72;;;2.95;78.55
34742;BME280;20968;42.696;23.360;2023-12-22T03:25:41;93595.88;;;3.17;78.20
34742;BME280;20968;42.696;23.360;2023-12-22T03:28:06;93595.56;;;3.15;78.29
34742;BME280;20968;42.696;23.360;2023-12-22T03:30:32;93592.09;;;3.00;78.41
34742;BME280;20968;42.696;23.360;2023-12-22T03:32:57;93591.72;;;3.07;78.06
34742;BME280;20968;42.696;23.360;2023-12-22T03:35:23;93591.56;;;3.25;77.94
34742;BME280;20968;42.696;23.360;2023-12-22T03:37:48;93584.31;;;3.22;77.81
34742;BME280;20968;42.696;23.360;2023-12-22T03:40:13;93585.81;;;3.37;76.96
34742;BME280;20968;42.696;23.360;2023-12-22T03:42:39;93580.63;;;3.39;77.34
34742;BME280;20968;42.696;23.360;2023-12-22T03:45:05;93582.72;;;3.44;77.18
34742;BME280;20968;42.696;23.360;2023-12-22T03:47:31;93578.00;;;3.45;77.12
34742;BME280;20968;42.696;23.360;2023-12-22T03:49:57;93592.44;;;3.51;76.94
34742;BME280;20968;42.696;23.360;2023-12-22T03:52:22;93585.81;;;3.37;77.96
34742;BME280;20968;42.696;23.360;2023-12-22T03:54:47;93584.47;;;3.47;78.11
34742;BME280;20968;42.696;23.360;2023-12-22T03:57:13;93583.63;;;3.56;77.17
34742;BME280;20968;42.696;23.360;2023-12-22T03:59:38;93578.41;;;3.38;78.21
34742;BME280;20968;42.696;23.360;2023-12-22T04:02:04;93584.56;;;3.53;78.46
34742;BME280;20968;42.696;23.360;2023-12-22T04:04:29;93573.09;;;3.63;77.93
34742;BME280;20968;42.696;23.360;2023-12-22T04:06:54;93568.53;;;3.55;78.39
34742;BME280;20968;42.696;23.360;2023-12-22T04:09:20;93577.13;;;3.68;77.95
34742;BME280;20968;42.696;23.360;2023-12-22T04:11:45;93579.31;;;3.64;78.53
34742;BME280;20968;42.696;23.360;2023-12-22T04:14:11;93574.59;;;3.64;78.08
34742;BME280;20968;42.696;23.360;2023-12-22T04:16:37;93576.63;;;3.69;79.08
34742;BME280;20968;42.696;23.360;2023-12-22T04:19:03;93579.16;;;3.73;78.31
34742;BME280;20968;42.696;23.360;2023-12-22T04:21:28;93582.53;;;3.82;79.13
34742;BME280;20968;42.696;23.360;2023-12-22T04:23:54;93581.84;;;3.87;78.83
34742;BME280;20968;42.696;23.360;2023-12-22T04:26:19;93589.34;;;3.92;79.13
34742;BME280;20968;42.696;23.360;2023-12-22T04:28:45;93578.53;;;3.97;78.24
34742;BME280;20968;42.696;23.360;2023-12-22T04:31:10;93569.69;;;4.02;78.52
34742;BME280;20968;42.696;23.360;2023-12-22T04:33:35;93565.59;;;3.92;78.72
34742;BME280;20968;42.696;23.360;2023-12-22T04:36:01;93564.91;;;3.97;78.86
34742;BME280;20968;42.696;23.360;2023-12-22T04:38:26;93564.63;;;3.95;79.33
34742;BME280;20968;42.696;23.360;2023-12-22T04:40:52;93557.03;;;3.99;79.18
34742;BME280;20968;42.696;23.360;2023-12-22T04:43:17;93569.22;;;4.04;79.23
34742;BME280;20968;42.696;23.360;2023-12-22T04:45:43;93554.19;;;4.08;79.87
34742;BME280;20968;42.696;23.360;2023-12-22T04:48:08;93553.00;;;4.15;78.81
34742;BME280;20968;42.696;23.360;2023-12-22T04:50:33;93548.31;;;4.15;79.06
34742;BME280;20968;42.696;23.360;2023-12-22T04:52:59;93564.25;;;4.22;79.37
34742;BME280;20968;42.696;23.360;2023-12-22T04:55:24;93547.97;;;4.08;79.87
34742;BME280;20968;42.696;23.360;2023-12-22T04:57:50;93554.50;;;4.16;80.46
34742;BME280;20968;42.696;23.360;2023-12-22T05:00:15;93568.59;;;4.14;80.14
34742;BME280;20968;42.696;23.360;2023-12-22T05:02:40;93549.63;;;4.20;80.50
34742;BME280;20968;42.696;23.360;2023-12-22T05:05:07;93547.91;;;4.22;80.36
34742;BME280;20968;42.696;23.360;2023-12-22T05:07:33;93538.97;;;4.22;80.30
34742;BME280;20968;42.696;23.360;2023-12-22T05:09:59;93535.59;;;4.27;80.78
34742;BME280;20968;42.696;23.360;2023-12-22T05:12:24;93531.38;;;4.26;80.21
34742;BME280;20968;42.696;23.360;2023-12-22T05:14:49;93534.56;;;4.24;81.00
34742;BME280;20968;42.696;23.360;2023-12-22T05:17:15;93540.75;;;4.25;80.40
34742;BME280;20968;42.696;23.360;2023-12-22T05:19:40;93538.78;;;4.25;80.83
34742;BME280;20968;42.696;23.360;2023-12-22T05:22:06;93542.56;;;4.33;80.26
34742;BME280;20968;42.696;23.360;2023-12-22T05:24:31;93539.19;;;3.98;81.71
34742;BME280;20968;42.696;23.360;2023-12-22T05:26:56;93543.81;;;4.12;81.81
34742;BME280;20968;42.696;23.360;2023-12-22T05:29:22;93558.19;;;4.13;81.42
34742;BME280;20968;42.696;23.360;2023-12-22T05:31:47;93545.88;;;4.17;80.89
34742;BME280;20968;42.696;23.360;2023-12-22T05:34:13;93547.69;;;4.26;80.75
34742;BME280;20968;42.696;23.360;2023-12-22T05:36:38;93548.44;;;4.26;80.88
34742;BME280;20968;42.696;23.360;2023-12-22T05:39:03;93552.53;;;4.16;81.64
34742;BME280;20968;42.696;23.360;2023-12-22T05:41:29;93546.34;;;4.16;81.58
34742;BME280;20968;42.696;23.360;2023-12-22T05:43:54;93553.69;;;4.30;81.51
34742;BME280;20968;42.696;23.360;2023-12-22T05:46:19;93546.81;;;4.34;80.79
34742;BME280;20968;42.696;23.360;2023-12-22T05:48:45;93545.06;;;4.31;80.82
34742;BME280;20968;42.696;23.360;2023-12-22T05:51:10;93537.91;;;4.34;80.63
34742;BME280;20968;42.696;23.360;2023-12-22T05:53:41;93549.94;;;4.27;81.32
34742;BME280;20968;42.696;23.360;2023-12-22T05:56:20;93547.34;;;4.18;81.29
34742;BME280;20968;42.696;23.360;2023-12-22T05:58:46;93541.03;;;4.07;81.80
34742;BME280;20968;42.696;23.360;2023-12-22T06:01:15;93530.06;;;4.21;82.02
34742;BME280;20968;42.696;23.360;2023-12-22T06:03:41;93541.50;;;4.25;81.48
34742;BME280;20968;42.696;23.360;2023-12-22T06:06:06;93541.84;;;4.33;80.75
34742;BME280;20968;42.696;23.360;2023-12-22T06:08:32;93537.72;;;4.17;81.89
34742;BME280;20968;42.696;23.360;2023-12-22T06:10:57;93543.13;;;3.97;82.74
34742;BME280;20968;42.696;23.360;2023-12-22T06:13:23;93543.63;;;4.16;82.77
34742;BME280;20968;42.696;23.360;2023-12-22T06:15:49;93549.66;;;4.25;82.83
34742;BME280;20968;42.696;23.360;2023-12-22T06:18:14;93542.75;;;4.24;81.86
34742;BME280;20968;42.696;23.360;2023-12-22T06:20:40;93539.59;;;4.31;81.95
34742;BME280;20968;42.696;23.360;2023-12-22T06:23:05;93539.84;;;4.33;82.04
34742;BME280;20968;42.696;23.360;2023-12-22T06:25:31;93536.25;;;4.22;81.60
34742;BME280;20968;42.696;23.360;2023-12-22T06:27:56;93542.88;;;4.15;82.67
34742;BME280;20968;42.696;23.360;2023-12-22T06:30:21;93543.81;;;4.12;83.38
34742;BME280;20968;42.696;23.360;2023-12-22T06:32:47;93555.66;;;4.29;82.98
34742;BME280;20968;42.696;23.360;2023-12-22T06:35:13;93561.41;;;4.31;81.60
34742;BME280;20968;42.696;23.360;2023-12-22T06:37:38;93550.88;;;4.44;81.96
34742;BME280;20968;42.696;23.360;2023-12-22T06:40:05;93552.19;;;4.49;81.07
34742;BME280;20968;42.696;23.360;2023-12-22T06:42:31;93552.03;;;4.58;81.63
34742;BME280;20968;42.696;23.360;2023-12-22T06:44:56;93557.56;;;4.63;81.56
34742;BME280;20968;42.696;23.360;2023-12-22T06:47:22;93563.25;;;4.65;81.39
34742;BME280;20968;42.696;23.360;2023-12-22T06:49:47;93561.00;;;4.63;82.14
34742;BME280;20968;42.696;23.360;2023-12-22T06:52:13;93558.22;;;4.58;82.93
34742;BME280;20968;42.696;23.360;2023-12-22T06:54:38;93559.09;;;4.69;82.21
34742;BME280;20968;42.696;23.360;2023-12-22T06:57:04;93559.38;;;4.71;82.32
34742;BME280;20968;42.696;23.360;2023-12-22T06:59:29;93554.66;;;4.72;82.60
34742;BME280;20968;42.696;23.360;2023-12-22T07:01:54;93553.53;;;4.84;82.24
34742;BME280;20968;42.696;23.360;2023-12-22T07:04:20;93560.06;;;4.92;82.33
34742;BME280;20968;42.696;23.360;2023-12-22T07:06:46;93567.97;;;4.90;82.57
34742;BME280;20968;42.696;23.360;2023-12-22T07:11:49;93556.41;;;5.00;82.28
34742;BME280;20968;42.696;23.360;2023-12-22T07:14:18;93564.31;;;4.98;81.93
34742;BME280;20968;42.696;23.360;2023-12-22T07:16:43;93564.66;;;5.06;81.82
34742;BME280;20968;42.696;23.360;2023-12-22T07:19:09;93571.19;;;5.14;82.41
34742;BME280;20968;42.696;23.360;2023-12-22T07:21:36;93576.06;;;5.04;82.64
34742;BME280;20968;42.696;23.360;2023-12-22T07:24:01;93574.84;;;5.11;82.21
34742;BME280;20968;42.696;23.360;2023-12-22T07:26:27;93575.66;;;4.91;82.84
34742;BME280;20968;42.696;23.360;2023-12-22T07:28:53;93584.25;;;5.04;82.72
34742;BME280;20968;42.696;23.360;2023-12-22T07:31:19;93571.13;;;5.08;82.83
34742;BME280;20968;42.696;23.360;2023-12-22T07:33:44;93579.09;;;5.12;82.94
34742;BME280;20968;42.696;23.360;2023-12-22T07:36:10;93579.94;;;5.23;81.90
34742;BME280;20968;42.696;23.360;2023-12-22T07:38:36;93577.66;;;5.16;82.54
34742;BME280;20968;42.696;23.360;2023-12-22T07:41:01;93583.16;;;5.22;82.95
34742;BME280;20968;42.696;23.360;2023-12-22T07:43:27;93578.22;;;5.26;82.51
34742;BME280;20968;42.696;23.360;2023-12-22T07:45:54;93587.00;;;5.35;82.79
34742;BME280;20968;42.696;23.360;2023-12-22T07:48:20;93588.53;;;5.41;82.46
34742;BME280;20968;42.696;23.360;2023-12-22T07:50:45;93589.47;;;5.33;82.79
34742;BME280;20968;42.696;23.360;2023-12-22T07:53:11;93596.34;;;5.29;83.37
34742;BME280;20968;42.696;23.360;2023-12-22T07:55:37;93592.34;;;5.24;83.83
34742;BME280;20968;42.696;23.360;2023-12-22T07:58:04;93606.25;;;5.26;83.59
34742;BME280;20968;42.696;23.360;2023-12-22T08:00:29;93611.06;;;5.37;83.44
34742;BME280;20968;42.696;23.360;2023-12-22T08:02:55;93612.28;;;5.36;83.88
34742;BME280;20968;42.696;23.360;2023-12-22T08:05:20;93614.81;;;5.39;83.48
34742;BME280;20968;42.696;23.360;2023-12-22T08:07:46;93614.09;;;5.44;83.44
34742;BME280;20968;42.696;23.360;2023-12-22T08:10:11;93634.69;;;5.45;83.41
34742;BME280;20968;42.696;23.360;2023-12-22T08:12:37;93635.25;;;5.54;83.54
34742;BME280;20968;42.696;23.360;2023-12-22T08:15:03;93630.63;;;5.60;83.20
34742;BME280;20968;42.696;23.360;2023-12-22T08:17:29;93636.81;;;5.61;83.20
34742;BME280;20968;42.696;23.360;2023-12-22T08:19:54;93635.88;;;5.64;83.05
34742;BME280;20968;42.696;23.360;2023-12-22T08:22:20;93634.41;;;5.68;83.37
34742;BME280;20968;42.696;23.360;2023-12-22T08:24:45;93632.69;;;5.71;83.40
34742;BME280;20968;42.696;23.360;2023-12-22T08:27:10;93637.16;;;5.68;83.61
34742;BME280;20968;42.696;23.360;2023-12-22T08:29:36;93643.41;;;5.74;83.70
34742;BME280;20968;42.696;23.360;2023-12-22T08:32:01;93642.59;;;5.68;82.97
34742;BME280;20968;42.696;23.360;2023-12-22T08:34:27;93636.44;;;5.73;83.29
34742;BME280;20968;42.696;23.360;2023-12-22T08:36:53;93643.88;;;5.73;83.86
34742;BME280;20968;42.696;23.360;2023-12-22T08:39:18;93643.94;;;5.78;83.36
34742;BME280;20968;42.696;23.360;2023-12-22T08:41:44;93649.16;;;5.76;83.53
34742;BME280;20968;42.696;23.360;2023-12-22T08:44:10;93640.97;;;5.82;83.51
34742;BME280;20968;42.696;23.360;2023-12-22T08:46:35;93644.47;;;5.82;83.18
34742;BME280;20968;42.696;23.360;2023-12-22T08:49:01;93648.72;;;5.83;83.78
34742;BME280;20968;42.696;23.360;2023-12-22T08:51:28;93646.72;;;5.84;84.06
34742;BME280;20968;42.696;23.360;2023-12-22T08:53:54;93642.47;;;5.83;84.35
34742;BME280;20968;42.696;23.360;2023-12-22T08:56:21;93649.00;;;5.91;84.39
34742;BME280;20968;42.696;23.360;2023-12-22T08:58:47;93649.31;;;5.98;84.33
34742;BME280;20968;42.696;23.360;2023-12-22T09:01:16;93642.19;;;6.06;84.10
34742;BME280;20968;42.696;23.360;2023-12-22T09:03:41;93648.88;;;6.05;84.25
34742;BME280;20968;42.696;23.360;2023-12-22T09:06:14;93659.56;;;6.09;83.99
34742;BME280;20968;42.696;23.360;2023-12-22T09:08:41;93652.88;;;6.15;83.81
34742;BME280;20968;42.696;23.360;2023-12-22T09:11:06;93659.63;;;6.14;84.30
34742;BME280;20968;42.696;23.360;2023-12-22T09:13:32;93668.31;;;6.18;84.61
34742;BME280;20968;42.696;23.360;2023-12-22T09:15:58;93659.34;;;6.12;84.87
34742;BME280;20968;42.696;23.360;2023-12-22T09:18:23;93664.81;;;6.12;84.94
34742;BME280;20968;42.696;23.360;2023-12-22T09:20:49;93669.03;;;6.13;84.88
34742;BME280;20968;42.696;23.360;2023-12-22T09:23:14;93670.72;;;6.05;85.17
34742;BME280;20968;42.696;23.360;2023-12-22T09:25:40;93659.78;;;6.05;86.02
34742;BME280;20968;42.696;23.360;2023-12-22T09:28:05;93662.56;;;6.11;86.49
34742;BME280;20968;42.696;23.360;2023-12-22T09:30:31;93663.31;;;6.11;86.79
34742;BME280;20968;42.696;23.360;2023-12-22T09:32:57;93658.34;;;6.10;86.93
34742;BME280;20968;42.696;23.360;2023-12-22T09:35:22;93660.06;;;6.07;87.13
34742;BME280;20968;42.696;23.360;2023-12-22T09:37:50;93656.06;;;6.08;87.54
34742;BME280;20968;42.696;23.360;2023-12-22T09:40:15;93652.16;;;6.15;87.58
34742;BME280;20968;42.696;23.360;2023-12-22T09:42:41;93654.25;;;6.30;87.56
34742;BME280;20968;42.696;23.360;2023-12-22T09:45:11;93656.97;;;6.78;91.01
34742;BME280;20968;42.696;23.360;2023-12-22T09:47:40;93646.72;;;6.62;89.30
34742;BME280;20968;42.696;23.360;2023-12-22T09:50:07;93661.88;;;6.63;88.61
34742;BME280;20968;42.696;23.360;2023-12-22T09:52:35;93652.63;;;6.55;88.17
34742;BME280;20968;42.696;23.360;2023-12-22T09:55:01;93655.09;;;6.47;88.01
34742;BME280;20968;42.696;23.360;2023-12-22T09:57:27;93642.69;;;6.52;88.12
34742;BME280;20968;42.696;23.360;2023-12-22T09:59:54;93638.50;;;6.62;88.00
34742;BME280;20968;42.696;23.360;2023-12-22T10:02:20;93628.13;;;6.71;87.29
34742;BME280;20968;42.696;23.360;2023-12-22T10:04:47;93630.38;;;6.73;87.18
34742;BME280;20968;42.696;23.360;2023-12-22T10:07:14;93626.91;;;6.83;86.03
34742;BME280;20968;42.696;23.360;2023-12-22T10:09:40;93633.38;;;6.86;86.19
34742;BME280;20968;42.696;23.360;2023-12-22T10:12:09;93638.84;;;6.80;86.69
34742;BME280;20968;42.696;23.360;2023-12-22T10:14:37;93632.38;;;6.78;87.27
34742;BME280;20968;42.696;23.360;2023-12-22T10:17:04;93624.09;;;6.61;87.14
34742;BME280;20968;42.696;23.360;2023-12-22T10:19:30;93620.13;;;6.62;87.99
34742;BME280;20968;42.696;23.360;2023-12-22T10:21:56;93607.47;;;6.65;87.56
34742;BME280;20968;42.696;23.360;2023-12-22T10:24:40;93612.72;;;6.74;88.25
34742;BME280;20968;42.696;23.360;2023-12-22T10:27:10;93605.00;;;6.72;87.86
34742;BME280;20968;42.696;23.360;2023-12-22T10:29:36;93603.25;;;6.69;88.73
34742;BME280;20968;42.696;23.360;2023-12-22T10:32:02;93596.22;;;6.52;89.11
34742;BME280;20968;42.696;23.360;2023-12-22T10:34:29;93577.56;;;6.45;89.37
34742;BME280;20968;42.696;23.360;2023-12-22T10:36:55;93586.09;;;6.63;89.96
34742;BME280;20968;42.696;23.360;2023-12-22T10:39:20;93585.94;;;6.94;89.21
34742;BME280;20968;42.696;23.360;2023-12-22T10:41:49;93573.75;;;7.00;88.28
34742;BME280;20968;42.696;23.360;2023-12-22T10:44:15;93567.53;;;6.94;89.86
34742;BME280;20968;42.696;23.360;2023-12-22T10:46:43;93562.06;;;7.11;89.74
34742;BME280;20968;42.696;23.360;2023-12-22T10:49:08;93556.38;;;7.20;89.75
34742;BME280;20968;42.696;23.360;2023-12-22T10:51:34;93537.47;;;7.44;89.68
34742;BME280;20968;42.696;23.360;2023-12-22T10:53:59;93542.94;;;7.60;88.05
34742;BME280;20968;42.696;23.360;2023-12-22T10:56:25;93559.13;;;7.80;87.19
34742;BME280;20968;42.696;23.360;2023-12-22T10:58:51;93541.19;;;7.73;86.82
34742;BME280;20968;42.696;23.360;2023-12-22T11:01:24;93545.16;;;7.72;84.40
34742;BME280;20968;42.696;23.360;2023-12-22T11:03:57;93546.41;;;7.77;83.77
34742;BME280;20968;42.696;23.360;2023-12-22T11:06:24;93551.66;;;7.70;83.33
34742;BME280;20968;42.696;23.360;2023-12-22T11:08:52;93541.94;;;7.63;82.61
34742;BME280;20968;42.696;23.360;2023-12-22T11:11:33;93538.22;;;7.61;83.21
34742;BME280;20968;42.696;23.360;2023-12-22T11:14:00;93518.06;;;7.58;84.19
34742;BME280;20968;42.696;23.360;2023-12-22T11:16:28;93506.34;;;7.63;83.62
34742;BME280;20968;42.696;23.360;2023-12-22T11:18:54;93503.31;;;7.88;83.25
34742;BME280;20968;42.696;23.360;2023-12-22T11:21:24;93503.25;;;8.21;83.19
34742;BME280;20968;42.696;23.360;2023-12-22T11:23:51;93504.16;;;8.46;81.79
34742;BME280;20968;42.696;23.360;2023-12-22T11:26:21;93505.72;;;8.81;80.26
34742;BME280;20968;42.696;23.360;2023-12-22T11:28:48;93506.00;;;9.18;79.87
34742;BME280;20968;42.696;23.360;2023-12-22T11:31:14;93507.63;;;9.32;78.34
34742;BME280;20968;42.696;23.360;2023-12-22T11:33:44;93518.66;;;9.27;76.87
34742;BME280;20968;42.696;23.360;2023-12-22T11:36:12;93522.06;;;9.38;76.67
34742;BME280;20968;42.696;23.360;2023-12-22T11:38:40;93528.56;;;9.35;75.74
34742;BME280;20968;42.696;23.360;2023-12-22T11:41:06;93535.13;;;9.27;77.08
34742;BME280;20968;42.696;23.360;2023-12-22T11:43:37;93547.25;;;9.02;76.87
34742;BME280;20968;42.696;23.360;2023-12-22T11:46:03;93553.09;;;8.87;76.93
34742;BME280;20968;42.696;23.360;2023-12-22T11:48:29;93552.34;;;8.81;78.22
34742;BME280;20968;42.696;23.360;2023-12-22T11:50:55;93558.47;;;8.58;77.54
34742;BME280;20968;42.696;23.360;2023-12-22T11:53:22;93558.28;;;8.40;77.42
34742;BME280;20968;42.696;23.360;2023-12-22T11:56:02;93550.56;;;8.38;77.75
34742;BME280;20968;42.696;23.360;2023-12-22T11:58:38;93546.81;;;8.36;78.25
34742;BME280;20968;42.696;23.360;2023-12-22T12:01:09;93541.31;;;8.36;77.66
34742;BME280;20968;42.696;23.360;2023-12-22T12:03:42;93543.06;;;8.39;77.17
34742;BME280;20968;42.696;23.360;2023-12-22T12:08:50;93534.13;;;8.33;75.49
34742;BME280;20968;42.696;23.360;2023-12-22T12:11:16;93541.38;;;8.25;74.71
34742;BME280;20968;42.696;23.360;2023-12-22T12:13:44;93548.09;;;8.29;74.99
34742;BME280;20968;42.696;23.360;2023-12-22T12:16:11;93544.38;;;8.27;75.28
34742;BME280;20968;42.696;23.360;2023-12-22T12:18:37;93551.34;;;8.06;74.62
34742;BME280;20968;42.696;23.360;2023-12-22T12:21:02;93538.91;;;8.16;74.28
34742;BME280;20968;42.696;23.360;2023-12-22T12:23:28;93516.47;;;8.12;73.35
34742;BME280;20968;42.696;23.360;2023-12-22T12:25:54;93538.41;;;8.12;73.75
34742;BME280;20968;42.696;23.360;2023-12-22T12:28:31;93519.94;;;8.12;73.98
34742;BME280;20968;42.696;23.360;2023-12-22T12:31:04;93516.47;;;8.12;72.90
34742;BME280;20968;42.696;23.360;2023-12-22T12:33:30;93515.47;;;8.15;73.82
34742;BME280;20968;42.696;23.360;2023-12-22T12:35:57;93519.69;;;8.10;73.74
34742;BME280;20968;42.696;23.360;2023-12-22T12:38:55;93514.72;;;8.09;72.67
34742;BME280;20968;42.696;23.360;2023-12-22T12:41:29;93508.25;;;8.06;72.65
34742;BME280;20968;42.696;23.360;2023-12-22T12:43:58;93504.75;;;8.06;71.95
34742;BME280;20968;42.696;23.360;2023-12-22T12:46:40;93499.28;;;8.06;72.21
34742;BME280;20968;42.696;23.360;2023-12-22T12:49:08;93502.78;;;8.12;70.63
34742;BME280;20968;42.696;23.360;2023-12-22T12:51:38;93501.75;;;8.09;71.53
34742;BME280;20968;42.696;23.360;2023-12-22T12:54:05;93500.50;;;8.10;71.72
34742;BME280;20968;42.696;23.360;2023-12-22T12:56:41;93512.25;;;8.11;71.04
34742;BME280;20968;42.696;23.360;2023-12-22T12:59:11;93524.19;;;8.13;70.64
34742;BME280;20968;42.696;23.360;2023-12-22T13:01:48;93536.91;;;8.11;71.25
34742;BME280;20968;42.696;23.360;2023-12-22T13:04:14;93539.38;;;8.09;71.13